createdAt,value
2023-05-21T00:00:27.754Z,53.90
2023-05-21T00:02:54.517Z,59.40
2023-05-21T00:05:21.652Z,56.00
2023-05-21T00:07:48.226Z,54.20
2023-05-21T00:10:14.906Z,56.20
2023-05-21T00:12:41.499Z,59.20
2023-05-21T00:15:08.917Z,57.50
2023-05-21T00:17:35.644Z,56.10
2023-05-21T00:20:03.339Z,54.90
2023-05-21T00:22:29.832Z,61.10
2023-05-21T00:24:56.675Z,59.30
2023-05-21T00:27:23.203Z,66.40
2023-05-21T00:29:49.896Z,62.20
2023-05-21T00:32:16.839Z,57.90
2023-05-21T00:34:43.289Z,58.30
2023-05-21T00:37:09.798Z,59.30
2023-05-21T00:39:36.388Z,59.10
2023-05-21T00:42:02.889Z,64.20
2023-05-21T00:44:29.798Z,59.80
2023-05-21T00:46:56.570Z,58.80
2023-05-21T00:49:23.677Z,56.60
2023-05-21T00:51:50.498Z,61.40
2023-05-21T00:54:17.384Z,63.70
2023-05-21T00:56:45.022Z,61.30
2023-05-21T00:59:11.545Z,65.20
2023-05-21T01:01:38.100Z,61.10
2023-05-21T01:04:05.030Z,58.00
2023-05-21T01:06:31.495Z,62.40
2023-05-21T01:08:58.375Z,60.80
2023-05-21T01:11:37.691Z,60.20
2023-05-21T01:14:05.548Z,63.20
2023-05-21T01:16:32.508Z,60.40
2023-05-21T01:18:59.542Z,58.60
2023-05-21T01:21:29.480Z,56.90
2023-05-21T01:23:56.332Z,59.30
2023-05-21T01:26:23.122Z,58.20
2023-05-21T01:28:49.616Z,53.50
2023-05-21T01:31:33.317Z,53.70
2023-05-21T01:34:02.246Z,56.80
2023-05-21T01:36:38.593Z,60.60
2023-05-21T01:39:18.671Z,57.30
2023-05-21T01:41:46.159Z,62.50
2023-05-21T01:44:15.187Z,59.40
2023-05-21T01:46:41.782Z,60.80
2023-05-21T01:49:09.132Z,58.20
2023-05-21T01:51:36.865Z,56.90
2023-05-21T01:54:03.767Z,57.80
2023-05-21T01:56:30.525Z,58.30
2023-05-21T01:58:57.022Z,57.30
2023-05-21T02:01:23.555Z,63.50
2023-05-21T02:03:50.237Z,65.40
2023-05-21T02:06:16.874Z,60.20
2023-05-21T02:08:43.525Z,59.70
2023-05-21T02:11:10.057Z,61.50
2023-05-21T02:13:36.544Z,56.30
2023-05-21T02:16:03.244Z,61.80
2023-05-21T02:18:29.714Z,70.40
2023-05-21T02:20:56.181Z,62.40
2023-05-21T02:23:22.724Z,77.40
2023-05-21T02:25:49.220Z,74.70
2023-05-21T02:28:15.890Z,70.20
2023-05-21T02:30:42.374Z,64.60
2023-05-21T02:33:08.852Z,71.60
2023-05-21T02:35:35.507Z,69.20
2023-05-21T02:38:02.253Z,65.40
2023-05-21T02:40:29.015Z,62.60
2023-05-21T02:42:55.576Z,65.50
2023-05-21T02:45:22.087Z,62.40
2023-05-21T02:47:48.630Z,62.60
2023-05-21T02:50:15.393Z,65.60
2023-05-21T02:52:42.530Z,67.50
2023-05-21T02:55:09.666Z,75.40
2023-05-21T02:57:36.400Z,76.70
2023-05-21T03:00:03.221Z,89.60
2023-05-21T03:02:29.766Z,100.60
2023-05-21T03:04:56.717Z,107.90
2023-05-21T03:07:23.831Z,102.30
2023-05-21T03:09:50.544Z,104.20
2023-05-21T03:12:17.184Z,164.50
2023-05-21T03:14:43.687Z,156.60
2023-05-21T03:17:10.427Z,175.50
2023-05-21T03:19:37.099Z,164.10
2023-05-21T03:22:04.554Z,149.60
2023-05-21T03:24:31.591Z,120.40
2023-05-21T03:26:58.184Z,135.80
2023-05-21T03:29:25.242Z,166.00
2023-05-21T03:31:53.318Z,120.40
2023-05-21T03:34:20.119Z,125.60
2023-05-21T03:36:47.791Z,131.30
2023-05-21T03:39:14.884Z,105.10
2023-05-21T03:41:41.662Z,126.00
2023-05-21T03:44:08.959Z,148.10
2023-05-21T03:46:35.608Z,150.80
2023-05-21T03:49:02.447Z,118.70
2023-05-21T03:51:29.214Z,89.90
2023-05-21T03:53:58.348Z,108.80
2023-05-21T03:56:25.075Z,91.90
2023-05-21T03:58:52.095Z,124.50
2023-05-21T04:01:20.107Z,103.40
2023-05-21T04:03:46.934Z,139.00
2023-05-21T04:06:13.901Z,131.30
2023-05-21T04:08:40.454Z,199.80
2023-05-21T04:11:07.021Z,176.90
2023-05-21T04:13:33.655Z,131.80
2023-05-21T04:16:00.277Z,128.30
2023-05-21T04:18:26.923Z,141.70
2023-05-21T04:20:53.669Z,118.00
2023-05-21T04:23:20.170Z,108.60
2023-05-21T04:25:47.024Z,123.00
2023-05-21T04:28:13.543Z,140.40
2023-05-21T04:30:40.055Z,125.90
2023-05-21T04:33:06.801Z,91.90
2023-05-21T04:35:33.683Z,88.60
2023-05-21T04:38:02.274Z,78.40
2023-05-21T04:40:30.276Z,139.40
2023-05-21T04:42:56.880Z,81.80
2023-05-21T04:45:23.347Z,76.20
2023-05-21T04:47:50.003Z,82.50
2023-05-21T04:50:16.669Z,79.10
2023-05-21T04:52:43.167Z,141.50
2023-05-21T04:55:10.309Z,81.00
2023-05-21T04:57:37.303Z,56.50
2023-05-21T05:00:04.587Z,73.00
2023-05-21T05:02:31.063Z,54.00
2023-05-21T05:04:57.592Z,56.60
2023-05-21T05:07:24.036Z,86.50
2023-05-21T05:09:50.585Z,55.50
2023-05-21T05:12:17.201Z,53.90
2023-05-21T05:14:43.660Z,51.60
2023-05-21T05:17:10.175Z,50.80
2023-05-21T05:19:36.789Z,46.60
2023-05-21T05:22:03.474Z,45.30
2023-05-21T05:24:30.134Z,36.90
2023-05-21T05:26:56.849Z,37.20
2023-05-21T05:29:23.322Z,34.00
2023-05-21T05:31:49.860Z,33.30
2023-05-21T05:34:16.442Z,41.60
2023-05-21T05:36:43.196Z,38.50
2023-05-21T05:39:09.699Z,35.60
2023-05-21T05:41:36.372Z,37.40
2023-05-21T05:44:03.157Z,35.70
2023-05-21T05:46:29.695Z,38.00
2023-05-21T05:48:56.367Z,36.50
2023-05-21T05:51:22.821Z,33.90
2023-05-21T05:53:49.557Z,32.60
2023-05-21T05:56:16.065Z,37.20
2023-05-21T05:58:42.782Z,33.40
2023-05-21T06:01:09.279Z,31.20
2023-05-21T06:03:35.977Z,38.90
2023-05-21T06:06:02.883Z,32.10
2023-05-21T06:08:29.523Z,34.60
2023-05-21T06:10:56.047Z,31.90
2023-05-21T06:13:22.559Z,31.70
2023-05-21T06:15:49.124Z,30.10
2023-05-21T06:18:16.219Z,30.60
2023-05-21T06:20:42.693Z,33.80
2023-05-21T06:23:09.158Z,30.40
2023-05-21T06:25:36.151Z,29.70
2023-05-21T06:28:02.976Z,30.50
2023-05-21T06:30:29.414Z,25.30
2023-05-21T06:32:56.060Z,27.00
2023-05-21T06:35:23.357Z,24.50
2023-05-21T06:37:49.884Z,24.80
2023-05-21T06:40:16.464Z,25.60
2023-05-21T06:42:42.961Z,24.60
2023-05-21T06:45:10.124Z,26.60
2023-05-21T06:47:36.689Z,27.20
2023-05-21T06:50:03.859Z,21.80
2023-05-21T06:52:30.383Z,24.40
2023-05-21T06:54:56.942Z,22.20
2023-05-21T06:57:23.442Z,21.20
2023-05-21T06:59:50.032Z,22.40
2023-05-21T07:02:16.618Z,23.80
2023-05-21T07:04:43.224Z,22.40
2023-05-21T07:07:09.868Z,19.20
2023-05-21T07:09:36.366Z,18.50
2023-05-21T07:12:02.906Z,18.40
2023-05-21T07:14:29.390Z,18.50
2023-05-21T07:16:56.000Z,18.70
2023-05-21T07:19:22.645Z,16.80
2023-05-21T07:21:49.637Z,18.50
2023-05-21T07:24:16.153Z,20.00
2023-05-21T07:26:42.813Z,18.20
2023-05-21T07:29:09.280Z,20.60
2023-05-21T07:31:35.910Z,18.10
2023-05-21T07:34:02.635Z,14.20
2023-05-21T07:36:29.309Z,18.20
2023-05-21T07:38:55.998Z,17.00
2023-05-21T07:41:22.469Z,15.30
2023-05-21T07:43:49.473Z,16.10
2023-05-21T07:46:16.048Z,15.20
2023-05-21T07:48:42.616Z,14.60
2023-05-21T07:51:09.123Z,16.70
2023-05-21T07:53:35.794Z,15.30
2023-05-21T07:56:02.643Z,15.60
2023-05-21T07:58:29.127Z,15.30
2023-05-21T08:00:55.798Z,11.20
2023-05-21T08:03:22.502Z,10.10
2023-05-21T08:05:49.217Z,6.60
2023-05-21T08:08:16.633Z,10.40
2023-05-21T08:10:43.530Z,10.60
2023-05-21T08:13:11.913Z,8.10
2023-05-21T08:15:38.839Z,8.50
2023-05-21T08:18:05.649Z,5.70
2023-05-21T08:20:32.571Z,5.90
2023-05-21T08:22:59.877Z,7.50
2023-05-21T08:25:27.275Z,10.20
2023-05-21T08:27:54.518Z,7.20
2023-05-21T08:30:21.114Z,5.40
2023-05-21T08:32:48.856Z,7.20
2023-05-21T08:35:15.415Z,7.90
2023-05-21T08:37:42.154Z,6.40
2023-05-21T08:40:12.668Z,7.70
2023-05-21T08:42:47.339Z,10.50
2023-05-21T08:45:15.084Z,6.90
2023-05-21T08:47:43.530Z,9.10
2023-05-21T08:50:12.475Z,9.30
2023-05-21T08:52:39.200Z,7.50
2023-05-21T08:55:06.470Z,7.40
2023-05-21T08:57:33.166Z,8.10
2023-05-21T09:00:00.340Z,8.30
2023-05-21T09:02:27.304Z,8.40
2023-05-21T09:04:54.492Z,5.10
2023-05-21T09:07:21.264Z,7.30
2023-05-21T09:10:12.192Z,7.50
2023-05-21T09:12:38.697Z,9.20
2023-05-21T09:15:06.038Z,4.50
2023-05-21T09:17:32.592Z,5.30
2023-05-21T09:20:12.857Z,5.60
2023-05-21T09:22:50.073Z,9.10
2023-05-21T09:25:18.852Z,7.40
2023-05-21T09:27:45.394Z,4.30
2023-05-21T09:30:13.912Z,6.00
2023-05-21T09:32:41.559Z,6.20
2023-05-21T09:35:13.055Z,6.60
2023-05-21T09:37:44.320Z,6.00
2023-05-21T09:40:19.417Z,10.60
2023-05-21T09:42:49.085Z,5.30
2023-05-21T09:45:19.636Z,6.50
2023-05-21T09:47:47.900Z,6.90
2023-05-21T09:50:19.152Z,5.40
2023-05-21T09:52:45.993Z,4.00
2023-05-21T09:55:14.201Z,4.30
2023-05-21T09:57:45.456Z,3.70
2023-05-21T10:00:22.889Z,8.40
2023-05-21T10:02:57.417Z,6.30
2023-05-21T10:05:28.958Z,6.70
2023-05-21T10:08:03.111Z,4.40
2023-05-21T10:10:31.352Z,6.60
2023-05-21T10:13:06.295Z,5.70
2023-05-21T10:15:42.605Z,7.30
2023-05-21T10:18:10.953Z,4.90
2023-05-21T10:20:38.163Z,8.70
2023-05-21T10:23:06.116Z,5.60
2023-05-21T10:25:33.389Z,4.50
2023-05-21T10:28:00.268Z,6.40
2023-05-21T10:30:27.532Z,5.20
2023-05-21T10:32:56.096Z,6.40
2023-05-21T10:35:23.383Z,6.70
2023-05-21T10:37:51.553Z,6.90
2023-05-21T10:40:18.251Z,7.30
2023-05-21T10:42:50.560Z,5.10
2023-05-21T10:45:31.846Z,5.10
2023-05-21T10:48:36.570Z,6.20
2023-05-21T10:51:27.731Z,4.50
2023-05-21T10:54:00.159Z,7.40
2023-05-21T10:56:41.199Z,5.30
2023-05-21T10:59:26.007Z,7.40
2023-05-21T11:01:53.951Z,4.80
2023-05-21T11:04:26.871Z,6.50
2023-05-21T11:06:53.580Z,6.10
2023-05-21T11:09:20.468Z,7.40
2023-05-21T11:11:51.925Z,6.30
2023-05-21T11:14:38.196Z,6.40
2023-05-21T11:17:07.517Z,4.40
2023-05-21T11:19:35.996Z,6.90
2023-05-21T11:22:23.878Z,7.40
2023-05-21T11:24:51.628Z,9.50
2023-05-21T11:27:31.956Z,4.80
2023-05-21T11:29:58.453Z,5.00
2023-05-21T11:32:25.216Z,5.20
2023-05-21T11:34:51.756Z,6.70
2023-05-21T11:37:18.302Z,4.60
2023-05-21T11:39:45.485Z,5.40
2023-05-21T11:42:12.749Z,8.40
2023-05-21T11:44:43.712Z,5.80
2023-05-21T11:47:12.413Z,6.30
2023-05-21T11:49:39.603Z,3.20
2023-05-21T11:52:08.932Z,3.90
2023-05-21T11:54:42.594Z,5.60
2023-05-21T11:57:09.531Z,6.60
2023-05-21T11:59:36.844Z,4.80
2023-05-21T12:02:04.422Z,5.00
2023-05-21T12:04:34.898Z,3.80
2023-05-21T12:07:06.953Z,5.80
2023-05-21T12:09:44.830Z,4.30
2023-05-21T12:12:14.042Z,8.10
2023-05-21T12:14:44.667Z,4.90
2023-05-21T12:17:11.337Z,6.50
2023-05-21T12:19:38.439Z,3.50
2023-05-21T12:22:05.673Z,8.10
2023-05-21T12:24:33.636Z,7.20
2023-05-21T12:27:01.874Z,4.50
2023-05-21T12:29:32.444Z,5.10
2023-05-21T12:32:00.903Z,5.80
2023-05-21T12:34:48.252Z,5.10
2023-05-21T12:37:21.856Z,4.00
2023-05-21T12:39:50.178Z,10.10
2023-05-21T12:42:17.244Z,7.20
2023-05-21T12:44:46.592Z,6.30
2023-05-21T12:47:13.836Z,4.90
2023-05-21T12:49:42.656Z,7.10
2023-05-21T12:52:12.918Z,5.20
2023-05-21T12:57:17.341Z,4.00
2023-05-21T12:59:46.571Z,8.40
2023-05-21T13:02:39.468Z,5.00
2023-05-21T13:05:10.857Z,7.50
2023-05-21T13:07:39.208Z,5.20
2023-05-21T13:10:06.809Z,9.40
2023-05-21T13:12:34.999Z,8.00
2023-05-21T13:15:03.269Z,4.30
2023-05-21T13:17:30.368Z,4.90
2023-05-21T13:20:10.418Z,7.10
2023-05-21T13:22:39.098Z,7.30
2023-05-21T13:25:07.235Z,8.30
2023-05-21T13:27:33.752Z,4.50
2023-05-21T13:30:00.933Z,6.90
2023-05-21T13:32:27.731Z,5.50
2023-05-21T13:34:54.715Z,5.00
2023-05-21T13:37:21.254Z,5.20
2023-05-21T13:39:47.861Z,6.00
2023-05-21T13:42:14.551Z,6.50
2023-05-21T13:44:41.367Z,5.90
2023-05-21T13:47:08.823Z,3.10
2023-05-21T13:49:35.548Z,4.90
2023-05-21T13:52:03.622Z,5.20
2023-05-21T13:54:30.572Z,4.40
2023-05-21T13:56:57.386Z,4.40
2023-05-21T13:59:23.986Z,4.70
2023-05-21T14:01:50.958Z,6.10
2023-05-21T14:04:18.951Z,3.20
2023-05-21T14:06:46.393Z,7.80
2023-05-21T14:09:13.785Z,4.10
2023-05-21T14:11:40.574Z,4.80
2023-05-21T14:14:07.779Z,7.50
2023-05-21T14:16:34.333Z,4.30
2023-05-21T14:19:01.061Z,5.40
2023-05-21T14:21:27.573Z,4.10
2023-05-21T14:23:54.261Z,5.40
2023-05-21T14:26:20.759Z,8.60
2023-05-21T14:28:47.211Z,5.80
2023-05-21T14:31:14.969Z,7.80
2023-05-21T14:33:41.480Z,3.70
2023-05-21T14:36:08.113Z,5.70
2023-05-21T14:38:34.565Z,4.80
2023-05-21T14:41:01.076Z,6.20
2023-05-21T14:43:27.518Z,3.10
2023-05-21T14:45:54.056Z,4.70
2023-05-21T14:48:20.936Z,3.60
2023-05-21T14:50:47.589Z,6.10
2023-05-21T14:53:14.108Z,4.90
2023-05-21T14:55:40.837Z,3.80
2023-05-21T14:58:07.799Z,4.50
2023-05-21T15:00:35.749Z,5.60
2023-05-21T15:03:03.304Z,6.30
2023-05-21T15:05:29.916Z,8.20
2023-05-21T15:07:57.546Z,4.70
2023-05-21T15:10:25.711Z,4.70
2023-05-21T15:12:52.925Z,5.70
2023-05-21T15:15:20.382Z,5.60
2023-05-21T15:17:48.075Z,4.90
2023-05-21T15:20:15.000Z,5.50
2023-05-21T15:22:41.736Z,6.40
2023-05-21T15:25:09.283Z,6.70
2023-05-21T15:27:35.861Z,8.60
2023-05-21T15:30:02.613Z,7.10
2023-05-21T15:32:29.353Z,5.70
2023-05-21T15:34:56.114Z,2.80
2023-05-21T15:37:22.765Z,5.50
2023-05-21T15:39:49.353Z,5.30
2023-05-21T15:42:16.017Z,6.20
2023-05-21T15:44:42.526Z,4.70
2023-05-21T15:47:09.413Z,5.10
2023-05-21T15:49:35.976Z,5.40
2023-05-21T15:52:02.499Z,6.10
2023-05-21T15:54:29.936Z,5.50
2023-05-21T15:56:56.753Z,4.50
2023-05-21T15:59:23.450Z,3.70
2023-05-21T16:01:49.960Z,5.90
2023-05-21T16:04:16.568Z,6.50
2023-05-21T16:06:43.541Z,6.50
2023-05-21T16:09:10.085Z,5.00
2023-05-21T16:11:36.730Z,5.00
2023-05-21T16:14:03.319Z,4.30
2023-05-21T16:16:30.061Z,4.60
2023-05-21T16:18:56.585Z,6.00
2023-05-21T16:21:23.844Z,5.00
2023-05-21T16:23:50.510Z,5.10
2023-05-21T16:26:17.021Z,7.00
2023-05-21T16:28:43.774Z,9.30
2023-05-21T16:31:10.274Z,5.10
2023-05-21T16:33:36.758Z,5.80
2023-05-21T16:36:03.427Z,9.90
2023-05-21T16:38:29.947Z,4.40
2023-05-21T16:40:56.622Z,4.70
2023-05-21T16:43:23.144Z,8.70
2023-05-21T16:45:49.696Z,3.90
2023-05-21T16:48:16.149Z,6.60
2023-05-21T16:50:42.929Z,6.40
2023-05-21T16:53:09.654Z,5.40
2023-05-21T16:55:38.000Z,4.80
2023-05-21T16:58:06.238Z,4.90
2023-05-21T17:00:34.268Z,7.10
2023-05-21T17:03:00.890Z,4.30
2023-05-21T17:05:27.815Z,6.20
2023-05-21T17:07:54.294Z,7.70
2023-05-21T17:10:21.211Z,5.40
2023-05-21T17:12:47.828Z,6.40
2023-05-21T17:15:14.337Z,5.90
2023-05-21T17:17:40.838Z,5.50
2023-05-21T17:20:08.159Z,7.80
2023-05-21T17:22:34.815Z,6.70
2023-05-21T17:25:01.314Z,5.90
2023-05-21T17:27:27.852Z,6.90
2023-05-21T17:29:54.417Z,5.20
2023-05-21T17:32:20.874Z,8.00
2023-05-21T17:34:47.579Z,6.60
2023-05-21T17:37:14.227Z,6.00
2023-05-21T17:39:41.307Z,13.60
2023-05-21T17:42:07.834Z,7.70
2023-05-21T17:44:34.342Z,6.20
2023-05-21T17:47:00.917Z,6.80
2023-05-21T17:49:27.452Z,6.80
2023-05-21T17:51:54.423Z,8.60
2023-05-21T17:54:20.910Z,9.80
2023-05-21T17:56:47.455Z,8.60
2023-05-21T17:59:14.267Z,10.30
2023-05-21T18:01:41.067Z,7.70
2023-05-21T18:04:08.083Z,9.50
2023-05-21T18:06:34.549Z,9.30
2023-05-21T18:09:01.128Z,6.60
2023-05-21T18:11:27.648Z,8.50
2023-05-21T18:13:54.344Z,7.60
2023-05-21T18:16:21.024Z,8.00
2023-05-21T18:18:47.835Z,9.40
2023-05-21T18:21:14.493Z,9.70
2023-05-21T18:23:40.956Z,13.50
2023-05-21T18:26:07.463Z,11.30
2023-05-21T18:28:33.989Z,9.90
2023-05-21T18:31:00.459Z,11.50
2023-05-21T18:33:27.415Z,12.50
2023-05-21T18:35:54.547Z,11.50
2023-05-21T18:38:21.849Z,11.10
2023-05-21T18:40:50.438Z,15.50
2023-05-21T18:43:17.781Z,12.60
2023-05-21T18:45:45.173Z,12.20
2023-05-21T18:48:11.919Z,15.20
2023-05-21T18:50:39.334Z,10.50
2023-05-21T18:53:06.168Z,14.60
2023-05-21T18:55:34.464Z,12.80
2023-05-21T18:58:01.182Z,10.90
2023-05-21T19:00:27.725Z,12.20
2023-05-21T19:02:55.625Z,12.90
2023-05-21T19:05:22.435Z,10.90
2023-05-21T19:07:49.112Z,13.50
2023-05-21T19:10:15.624Z,11.20
2023-05-21T19:12:43.192Z,11.00
2023-05-21T19:15:10.509Z,12.50
2023-05-21T19:17:37.408Z,12.10
2023-05-21T19:20:04.523Z,11.00
2023-05-21T19:22:31.437Z,12.10
2023-05-21T19:24:58.127Z,7.60
2023-05-21T19:27:24.653Z,8.10
2023-05-21T19:29:51.134Z,7.50
2023-05-21T19:32:17.746Z,11.30
2023-05-21T19:34:44.576Z,12.00
2023-05-21T19:37:11.209Z,11.30
2023-05-21T19:39:38.814Z,12.80
2023-05-21T19:42:06.296Z,7.40
2023-05-21T19:44:33.175Z,9.50
2023-05-21T19:47:01.038Z,11.00
2023-05-21T19:49:28.026Z,9.80
2023-05-21T19:51:55.270Z,11.50
2023-05-21T19:54:23.027Z,8.10
2023-05-21T19:56:50.357Z,8.30
2023-05-21T19:59:17.882Z,9.50
2023-05-21T20:01:44.771Z,10.70
2023-05-21T20:04:12.387Z,9.10
2023-05-21T20:06:39.204Z,13.40
2023-05-21T20:09:06.503Z,13.80
2023-05-21T20:11:33.626Z,14.30
2023-05-21T20:14:00.130Z,13.80
2023-05-21T20:16:26.674Z,15.00
2023-05-21T20:18:53.291Z,17.30
2023-05-21T20:21:19.896Z,9.90
2023-05-21T20:23:46.954Z,11.00
2023-05-21T20:26:14.472Z,12.60
2023-05-21T20:28:41.706Z,10.30
2023-05-21T20:31:08.567Z,9.80
2023-05-21T20:33:37.123Z,11.80
2023-05-21T20:36:04.670Z,11.50
2023-05-21T20:38:31.095Z,15.50
2023-05-21T20:40:57.615Z,9.70
2023-05-21T20:43:24.142Z,11.20
2023-05-21T20:45:51.133Z,12.30
2023-05-21T20:48:17.657Z,9.90
2023-05-21T20:50:44.205Z,14.60
2023-05-21T20:53:11.203Z,13.30
2023-05-21T20:55:38.457Z,11.30
2023-05-21T20:58:05.371Z,14.40
2023-05-21T21:00:32.143Z,12.80
2023-05-21T21:02:59.352Z,13.10
2023-05-21T21:05:25.969Z,11.20
2023-05-21T21:07:55.462Z,15.70
2023-05-21T21:10:22.677Z,12.10
2023-05-21T21:12:49.381Z,13.80
2023-05-21T21:15:16.030Z,13.40
2023-05-21T21:17:42.606Z,13.30
2023-05-21T21:20:09.369Z,16.00
2023-05-21T21:22:35.833Z,15.40
2023-05-21T21:25:02.356Z,16.30
2023-05-21T21:27:28.881Z,15.90
2023-05-21T21:29:55.321Z,20.90
2023-05-21T21:32:21.876Z,18.90
2023-05-21T21:34:48.850Z,19.70
2023-05-21T21:37:16.383Z,18.90
2023-05-21T21:39:43.177Z,14.10
2023-05-21T21:42:09.710Z,17.10
2023-05-21T21:44:36.162Z,15.70
2023-05-21T21:47:02.734Z,15.30
2023-05-21T21:49:29.288Z,17.70
2023-05-21T21:51:55.775Z,14.00
2023-05-21T21:54:22.324Z,17.70
2023-05-21T21:56:49.186Z,16.40
2023-05-21T21:59:15.698Z,12.70
2023-05-21T22:01:43.085Z,12.70
2023-05-21T22:04:09.714Z,13.30
2023-05-21T22:06:36.333Z,14.60
2023-05-21T22:09:02.895Z,33.20
2023-05-21T22:11:29.653Z,27.20
2023-05-21T22:13:56.212Z,19.80
2023-05-21T22:16:22.930Z,20.50
2023-05-21T22:18:49.579Z,15.70
2023-05-21T22:21:16.038Z,14.90
2023-05-21T22:23:42.939Z,16.60
2023-05-21T22:26:10.010Z,15.30
2023-05-21T22:28:36.579Z,14.70
2023-05-21T22:31:03.699Z,12.30
2023-05-21T22:33:30.434Z,9.70
2023-05-21T22:35:57.214Z,10.80
2023-05-21T22:38:24.969Z,10.40
2023-05-21T22:40:51.641Z,15.40
2023-05-21T22:43:18.518Z,11.70
2023-05-21T22:45:45.187Z,12.40
2023-05-21T22:48:11.787Z,13.30
2023-05-21T22:50:38.884Z,10.80
2023-05-21T22:53:07.089Z,13.70
2023-05-21T22:55:33.807Z,12.30
2023-05-21T22:58:00.332Z,13.20
2023-05-21T23:00:27.739Z,13.00
2023-05-21T23:02:54.901Z,12.40
2023-05-21T23:05:21.996Z,16.30
2023-05-21T23:07:48.778Z,12.50
2023-05-21T23:10:15.291Z,11.70
2023-05-21T23:12:41.807Z,17.10
2023-05-21T23:15:08.919Z,15.60
2023-05-21T23:17:35.385Z,13.80
2023-05-21T23:20:02.038Z,16.40
2023-05-21T23:22:28.578Z,14.80
2023-05-21T23:24:55.079Z,16.00
2023-05-21T23:27:21.530Z,14.60
2023-05-21T23:29:48.158Z,17.80
2023-05-21T23:32:15.329Z,14.00
2023-05-21T23:34:41.857Z,11.60
2023-05-21T23:37:08.625Z,14.80
2023-05-21T23:39:35.395Z,12.30
2023-05-21T23:42:02.281Z,13.60
2023-05-21T23:44:28.917Z,12.70
2023-05-21T23:46:55.420Z,13.00
2023-05-21T23:49:22.085Z,11.80
2023-05-21T23:51:49.020Z,13.30
2023-05-21T23:54:15.515Z,13.10
2023-05-21T23:56:42.006Z,14.40
2023-05-21T23:59:08.698Z,13.10
